Time;durP1;ratioP1;P1;durP2;ratioP2;P2;SDS_P1;SDS_P2;PMS_P1;PMS_P2;Temp;Humidity;BMP_temperature;BMP_pressure;BME280_temperature;BME280_humidity;BME280_pressure;Samples;Min_cycle;Max_cycle;Signal;HPM_P1;HPM_P2
2022/08/02 00:02:13;;;;;;;10.38;6.57;;;17.90;99.90;;;;;;5036824;28;20033;-54
2022/08/02 00:04:39;;;;;;;10.95;6.07;;;17.80;99.90;;;;;;5036686;28;20095;-54
2022/08/02 00:07:05;;;;;;;12.15;6.88;;;17.80;99.90;;;;;;5036655;28;20072;-54
2022/08/02 00:09:31;;;;;;;9.77;6.80;;;17.70;99.90;;;;;;5036826;28;20028;-54
2022/08/02 00:11:57;;;;;;;12.85;6.38;;;17.70;99.90;;;;;;5036505;28;20471;-54
2022/08/02 00:14:23;;;;;;;8.63;6.18;;;17.80;99.90;;;;;;5036514;28;20041;-54
2022/08/02 00:16:49;;;;;;;9.55;6.25;;;17.80;99.90;;;;;;5036689;28;20022;-54
2022/08/02 00:19:15;;;;;;;7.07;5.53;;;17.70;99.90;;;;;;5036536;28;20036;-54
2022/08/02 00:21:41;;;;;;;8.35;6.30;;;17.70;99.90;;;;;;5036461;28;20109;-54
2022/08/02 00:24:07;;;;;;;7.63;5.38;;;17.70;99.90;;;;;;5036419;28;20025;-54
2022/08/02 00:26:33;;;;;;;6.95;6.25;;;17.70;99.90;;;;;;5036446;28;20053;-54
2022/08/02 00:28:58;;;;;;;6.45;5.43;;;17.50;99.90;;;;;;5036501;28;20037;-54
2022/08/02 00:31:24;;;;;;;7.97;5.85;;;17.60;99.90;;;;;;5036335;28;20355;-54
2022/08/02 00:33:50;;;;;;;7.05;5.60;;;17.50;99.90;;;;;;5036311;28;20498;-54
2022/08/02 00:36:16;;;;;;;9.20;5.68;;;17.50;99.90;;;;;;5036134;28;20034;-54
2022/08/02 00:38:43;;;;;;;8.15;5.90;;;17.40;99.90;;;;;;5036235;28;20033;-54
2022/08/02 00:41:15;;;;;;;7.60;5.93;;;17.40;99.90;;;;;;5036022;28;20025;-54
2022/08/02 00:43:42;;;;;;;6.80;5.35;;;17.40;99.90;;;;;;5035895;28;20056;-54
2022/08/02 00:46:09;;;;;;;9.35;5.97;;;17.30;99.90;;;;;;5036030;28;20033;-54
2022/08/02 00:48:35;;;;;;;7.38;5.55;;;17.30;99.90;;;;;;5035963;28;20071;-54
2022/08/02 00:51:01;;;;;;;11.02;6.25;;;17.30;99.90;;;;;;5036172;28;20021;-54
2022/08/02 00:53:27;;;;;;;8.32;6.00;;;17.40;99.90;;;;;;5035952;28;20083;-54
2022/08/02 00:55:53;;;;;;;9.50;6.43;;;17.30;99.90;;;;;;5035590;28;20037;-54
2022/08/02 00:58:19;;;;;;;11.65;6.85;;;17.40;99.90;;;;;;5035804;28;20026;-54
2022/08/02 01:00:45;;;;;;;8.57;6.15;;;17.40;99.90;;;;;;5035187;28;20029;-54
2022/08/02 01:03:11;;;;;;;7.47;5.40;;;17.40;99.90;;;;;;5035569;28;20052;-54
2022/08/02 01:05:37;;;;;;;10.52;6.07;;;17.30;99.90;;;;;;5035622;28;20102;-54
2022/08/02 01:08:03;;;;;;;7.53;6.78;;;17.20;99.90;;;;;;5035566;28;20061;-54
2022/08/02 01:10:29;;;;;;;7.97;5.97;;;17.20;99.90;;;;;;5017959;28;20033;-54
2022/08/02 01:12:55;;;;;;;6.43;5.70;;;17.10;99.90;;;;;;5035428;28;20112;-54
2022/08/02 01:15:21;;;;;;;8.35;5.97;;;17.20;99.90;;;;;;5035458;28;20081;-54
2022/08/02 01:18:13;;;;;;;8.27;6.22;;;17.10;99.90;;;;;;5035422;28;20078;-54
2022/08/02 01:21:24;;;;;;;6.32;5.72;;;17.10;99.90;;;;;;5035391;28;20037;-54
2022/08/02 01:24:00;;;;;;;;;;;17.00;99.90;;;;;;5035680;28;20026;-54
2022/08/02 01:27:08;;;;;;;7.60;5.88;;;16.90;99.90;;;;;;5035365;28;19909;-54
2022/08/02 01:29:42;;;;;;;10.90;6.32;;;16.90;99.90;;;;;;5026636;28;20044;-54
2022/08/02 01:32:18;;;;;;;12.90;5.90;;;16.80;99.90;;;;;;5035072;28;20044;-54
2022/08/02 01:34:46;;;;;;;6.85;5.75;;;16.90;99.90;;;;;;5035278;28;20037;-54
2022/08/02 01:37:20;;;;;;;8.30;6.13;;;16.80;99.90;;;;;;5035009;28;20028;-54
2022/08/02 01:39:50;;;;;;;9.15;6.13;;;16.80;99.90;;;;;;5035461;28;20048;-54
2022/08/02 01:42:18;;;;;;;10.70;6.47;;;16.80;99.90;;;;;;5034957;28;20032;-54
2022/08/02 01:44:45;;;;;;;8.65;6.05;;;16.70;99.90;;;;;;5034936;28;20041;-54
2022/08/02 01:47:23;;;;;;;7.78;7.00;;;16.70;99.90;;;;;;5035009;28;20057;-54
2022/08/02 01:49:53;;;;;;;8.40;6.05;;;16.70;99.90;;;;;;5034931;28;20029;-54
2022/08/02 01:52:22;;;;;;;10.23;6.30;;;16.70;99.90;;;;;;5034828;28;20513;-53
2022/08/02 01:55:07;;;;;;;7.72;6.30;;;16.60;99.90;;;;;;5034785;28;20080;-54
2022/08/02 01:57:39;;;;;;;14.00;7.63;;;16.60;99.90;;;;;;5034911;28;20090;-54
2022/08/02 02:00:09;;;;;;;11.15;7.38;;;16.50;99.90;;;;;;5017015;28;20251;-54
2022/08/02 02:02:40;;;;;;;11.10;7.87;;;16.50;99.90;;;;;;5034755;28;20033;-54
2022/08/02 02:05:10;;;;;;;10.80;8.15;;;16.60;99.90;;;;;;5034543;28;20103;-54
2022/08/02 02:07:37;;;;;;;10.90;7.53;;;16.50;99.90;;;;;;5034498;28;20083;-54
2022/08/02 02:10:07;;;;;;;10.98;7.88;;;16.40;99.90;;;;;;5034673;28;20033;-54
2022/08/02 02:12:36;;;;;;;9.25;7.55;;;16.40;99.90;;;;;;5033706;28;20483;-54
2022/08/02 02:15:02;;;;;;;12.30;7.65;;;16.40;99.90;;;;;;5034516;28;20087;-54
2022/08/02 02:17:30;;;;;;;10.15;7.68;;;16.50;99.90;;;;;;5034592;28;20394;-54
2022/08/02 02:19:58;;;;;;;10.48;6.97;;;16.50;99.90;;;;;;5034367;28;20383;-54
2022/08/02 02:22:24;;;;;;;9.65;6.97;;;16.50;99.90;;;;;;5034233;28;20025;-54
2022/08/02 02:24:50;;;;;;;11.98;7.57;;;16.50;99.90;;;;;;5034469;28;20033;-54
2022/08/02 02:27:18;;;;;;;9.60;6.97;;;16.50;99.90;;;;;;5034572;28;20033;-54
2022/08/02 02:29:47;;;;;;;12.68;6.47;;;16.50;99.90;;;;;;5034277;28;20045;-54
2022/08/02 02:32:14;;;;;;;9.57;6.88;;;16.60;99.90;;;;;;5033037;28;20384;-53
2022/08/02 02:34:44;;;;;;;8.32;5.60;;;16.60;99.90;;;;;;5034134;28;20100;-54
2022/08/02 02:37:19;;;;;;;9.02;6.00;;;16.50;99.90;;;;;;5034276;28;20186;-54
2022/08/02 02:39:48;;;;;;;8.23;6.25;;;16.30;99.90;;;;;;5034332;28;20105;-53
2022/08/02 02:42:17;;;;;;;9.93;6.22;;;16.40;99.90;;;;;;5034061;28;20030;-54
2022/08/02 02:44:46;;;;;;;7.32;6.03;;;16.30;99.90;;;;;;5034437;28;20354;-54
2022/08/02 02:47:15;;;;;;;9.65;6.50;;;16.40;99.90;;;;;;5034226;28;20033;-54
2022/08/02 02:49:44;;;;;;;11.32;6.88;;;16.30;99.90;;;;;;5034105;28;20072;-54
2022/08/02 02:52:13;;;;;;;12.15;7.05;;;16.20;99.90;;;;;;5034141;28;20614;-54
2022/08/02 02:54:40;;;;;;;9.48;7.50;;;16.30;99.90;;;;;;5033951;28;20480;-54
2022/08/02 02:57:07;;;;;;;9.43;6.55;;;16.20;99.90;;;;;;5034108;28;20040;-54
2022/08/02 02:59:35;;;;;;;11.90;6.85;;;16.20;99.90;;;;;;5034178;28;20041;-54
2022/08/02 03:02:01;;;;;;;10.43;7.18;;;16.10;99.90;;;;;;5033888;28;20021;-54
2022/08/02 03:04:29;;;;;;;8.77;7.03;;;16.00;99.90;;;;;;5034035;28;20053;-54
2022/08/02 03:06:55;;;;;;;8.77;6.43;;;16.00;99.90;;;;;;5034063;28;20119;-53
2022/08/02 03:09:21;;;;;;;7.90;6.53;;;16.00;99.90;;;;;;5034003;28;20034;-54
2022/08/02 03:11:47;;;;;;;11.68;6.75;;;16.00;99.90;;;;;;5032846;28;20436;-54
2022/08/02 03:14:14;;;;;;;7.28;6.53;;;16.00;99.90;;;;;;5033897;28;20471;-53
2022/08/02 03:16:45;;;;;;;8.88;7.00;;;16.00;99.90;;;;;;5033812;28;20107;-54
2022/08/02 03:19:11;;;;;;;8.38;6.82;;;16.00;99.90;;;;;;5033739;28;20038;-54
2022/08/02 03:21:37;;;;;;;8.10;6.65;;;15.90;99.90;;;;;;5034001;28;20306;-54
2022/08/02 03:24:04;;;;;;;10.32;7.47;;;15.90;99.90;;;;;;5036017;28;20021;-54
2022/08/02 03:26:30;;;;;;;10.32;7.30;;;15.80;99.90;;;;;;5037704;28;20582;-54
2022/08/02 03:28:56;;;;;;;12.50;7.47;;;15.80;99.90;;;;;;5037464;28;20022;-54
2022/08/02 03:31:22;;;;;;;9.32;7.40;;;15.90;99.90;;;;;;5037644;28;20455;-54
2022/08/02 03:33:48;;;;;;;8.95;7.13;;;15.90;99.90;;;;;;5037753;28;20032;-53
2022/08/02 03:36:18;;;;;;;13.73;7.55;;;15.80;99.90;;;;;;5037420;28;20026;-54
2022/08/02 03:38:45;;;;;;;8.73;6.85;;;15.80;99.90;;;;;;5037537;28;20033;-54
2022/08/02 03:41:14;;;;;;;9.82;6.95;;;15.80;99.90;;;;;;5019479;28;20464;-54
2022/08/02 03:43:42;;;;;;;11.30;6.82;;;15.80;99.90;;;;;;5037539;28;20025;-54
2022/08/02 03:46:09;;;;;;;9.90;6.60;;;15.90;99.90;;;;;;5037162;28;20029;-54
2022/08/02 03:48:37;;;;;;;11.63;7.22;;;15.90;99.90;;;;;;5037298;28;20079;-54
2022/08/02 03:51:03;;;;;;;11.48;8.07;;;15.90;99.90;;;;;;5037306;28;20459;-54
2022/08/02 03:53:30;;;;;;;9.63;6.80;;;15.90;99.90;;;;;;5019662;28;20323;-54
2022/08/02 03:55:57;;;;;;;10.32;7.13;;;15.90;99.90;;;;;;5037010;28;20053;-53
2022/08/02 03:58:23;;;;;;;11.85;7.10;;;15.80;99.90;;;;;;5036946;28;20064;-54
2022/08/02 04:00:51;;;;;;;11.90;7.75;;;15.90;99.90;;;;;;5036750;28;20492;-54
2022/08/02 04:03:17;;;;;;;8.45;7.38;;;15.90;99.90;;;;;;5036952;28;20026;-54
2022/08/02 04:05:43;;;;;;;9.95;6.80;;;16.00;99.90;;;;;;5036650;28;20110;-54
2022/08/02 04:08:09;;;;;;;8.27;6.95;;;16.00;99.90;;;;;;5036703;28;20116;-54
2022/08/02 04:11:29;;;;;;;11.02;6.82;;;16.00;99.90;;;;;;5036749;28;20041;-54
2022/08/02 04:13:25;;;;;;;12.25;7.45;;;16.10;99.90;;;;;;5036448;28;20495;-54
2022/08/02 04:15:56;;;;;;;13.23;7.57;;;16.10;99.90;;;;;;5036617;28;20041;-54
2022/08/02 04:18:27;;;;;;;11.77;7.25;;;16.20;99.90;;;;;;5036592;28;20033;-54
2022/08/02 04:20:55;;;;;;;11.60;8.00;;;16.20;99.90;;;;;;5036392;28;20029;-54
2022/08/02 04:23:24;;;;;;;10.00;7.63;;;16.30;99.90;;;;;;5036618;28;20387;-54
2022/08/02 04:25:51;;;;;;;15.25;8.38;;;16.30;99.90;;;;;;5036677;28;20030;-54
2022/08/02 04:28:18;;;;;;;23.13;7.88;;;16.30;99.90;;;;;;5036803;28;20033;-54
2022/08/02 04:30:46;;;;;;;12.40;7.88;;;16.40;99.90;;;;;;5018672;28;20056;-54
2022/08/02 04:33:12;;;;;;;14.32;8.05;;;16.40;99.90;;;;;;5018636;28;20467;-54
2022/08/02 04:35:38;;;;;;;12.32;7.45;;;16.50;99.90;;;;;;5035146;28;20034;-54
2022/08/02 04:38:04;;;;;;;11.55;7.63;;;16.60;99.90;;;;;;5036334;28;20017;-54
2022/08/02 04:40:30;;;;;;;10.05;7.38;;;16.70;99.90;;;;;;5036568;28;20093;-54
2022/08/02 04:42:56;;;;;;;14.15;8.75;;;16.80;99.90;;;;;;5036040;28;20037;-54
2022/08/02 04:45:23;;;;;;;12.65;8.07;;;16.90;99.90;;;;;;5036078;28;20030;-54
2022/08/02 04:47:49;;;;;;;11.73;7.78;;;16.90;99.90;;;;;;5036038;28;20029;-54
2022/08/02 04:50:15;;;;;;;12.40;7.80;;;17.10;99.90;;;;;;5035850;28;20049;-54
2022/08/02 04:52:41;;;;;;;12.82;8.10;;;17.10;99.90;;;;;;5036106;28;20037;-54
2022/08/02 04:55:07;;;;;;;15.57;8.20;;;17.20;99.90;;;;;;5035853;28;20036;-54
2022/08/02 05:00:18;;;;;;;18.83;9.27;;;17.50;99.90;;;;;;5035808;28;20032;-54
2022/08/02 05:02:43;;;;;;;15.50;8.30;;;17.60;99.90;;;;;;5035660;28;20029;-54
2022/08/02 05:05:09;;;;;;;17.35;8.50;;;17.70;99.90;;;;;;5035439;28;20056;-54
2022/08/02 05:07:35;;;;;;;19.55;9.30;;;17.80;99.90;;;;;;5035682;28;20033;-54
2022/08/02 05:10:01;;;;;;;19.45;9.60;;;17.90;99.90;;;;;;5040944;28;20510;-54
2022/08/02 05:12:27;;;;;;;17.30;9.18;;;18.00;99.90;;;;;;5044977;28;20029;-54
2022/08/02 05:14:53;;;;;;;23.13;10.02;;;18.20;99.90;;;;;;5050044;28;20042;-54
2022/08/02 05:17:19;;;;;;;22.15;9.32;;;18.30;99.90;;;;;;5046845;28;20024;-54
2022/08/02 05:19:44;;;;;;;16.27;10.07;;;18.40;99.90;;;;;;5051169;28;20021;-54
2022/08/02 05:22:10;;;;;;;16.50;9.88;;;18.50;99.90;;;;;;5047618;28;20033;-54
2022/08/02 05:24:36;;;;;;;16.35;10.45;;;18.60;99.90;;;;;;5052608;28;20021;-54
2022/08/02 05:27:02;;;;;;;26.50;12.02;;;18.70;99.90;;;;;;5055201;28;20025;-54
2022/08/02 05:29:28;;;;;;;27.45;11.45;;;18.80;99.90;;;;;;5049510;28;20029;-54
2022/08/02 05:31:54;;;;;;;32.08;13.32;;;18.90;99.90;;;;;;5055457;28;20102;-54
2022/08/02 05:34:23;;;;;;;23.63;11.23;;;19.00;99.90;;;;;;5053553;28;20099;-54
2022/08/02 05:36:52;;;;;;;27.27;13.35;;;19.10;99.90;;;;;;5053331;28;20057;-54
2022/08/02 05:39:18;;;;;;;33.03;14.13;;;19.30;99.90;;;;;;5054499;28;20013;-54
2022/08/02 05:41:44;;;;;;;35.70;18.13;;;19.40;99.90;;;;;;5050825;28;20070;-54
2022/08/02 05:44:10;;;;;;;45.53;20.42;;;19.50;99.90;;;;;;5047856;28;20030;-54
2022/08/02 05:46:36;;;;;;;48.55;21.83;;;19.60;99.90;;;;;;5039898;28;20026;-54
2022/08/02 05:49:03;;;;;;;47.88;21.58;;;19.80;99.90;;;;;;5043200;28;20029;-54
2022/08/02 05:51:38;;;;;;;48.60;21.38;;;20.00;99.90;;;;;;5047329;28;20032;-54
2022/08/02 05:54:18;;;;;;;46.80;21.00;;;20.10;99.90;;;;;;5023806;28;20080;-54
2022/08/02 05:57:00;;;;;;;42.97;21.57;;;20.30;99.90;;;;;;5051951;28;20056;-54
2022/08/02 05:59:52;;;;;;;37.42;22.80;;;20.40;99.90;;;;;;5054411;28;20025;-54
2022/08/02 06:02:46;;;;;;;43.10;23.95;;;20.40;99.90;;;;;;5054487;28;20417;-54
2022/08/02 06:05:19;;;;;;;47.70;24.50;;;20.50;99.90;;;;;;5054266;28;20052;-54
2022/08/02 06:07:46;;;;;;;43.80;23.15;;;20.70;99.90;;;;;;5044219;28;20040;-54
2022/08/02 06:10:13;;;;;;;48.28;24.02;;;20.80;99.90;;;;;;5052106;28;20029;-54
2022/08/02 06:12:55;;;;;;;58.30;25.40;;;21.00;99.90;;;;;;5053682;28;20032;-54
2022/08/02 06:15:22;;;;;;;44.15;24.33;;;21.20;99.90;;;;;;5053986;28;20462;-54
2022/08/02 06:17:51;;;;;;;53.45;25.58;;;21.40;99.90;;;;;;5054038;28;20036;-54
2022/08/02 06:20:19;;;;;;;49.28;24.73;;;21.50;99.90;;;;;;5050515;28;20033;-55
2022/08/02 06:22:45;;;;;;;42.83;24.17;;;21.70;99.90;;;;;;5052733;28;20496;-54
2022/08/02 06:25:12;;;;;;;44.92;23.25;;;21.80;99.70;;;;;;5052231;28;20107;-54
2022/08/02 06:27:40;;;;;;;45.47;24.30;;;21.90;98.30;;;;;;5053265;28;20497;-54
2022/08/02 06:30:08;;;;;;;65.68;26.27;;;22.10;98.00;;;;;;5054200;28;20025;-54
2022/08/02 06:32:35;;;;;;;46.70;23.42;;;22.20;97.10;;;;;;5046486;28;20379;-54
2022/08/02 06:35:03;;;;;;;50.40;24.10;;;22.30;97.40;;;;;;5044745;28;20525;-54
2022/08/02 06:37:47;;;;;;;52.30;24.70;;;22.50;97.00;;;;;;5048911;28;20034;-54
2022/08/02 06:40:18;;;;;;;50.38;21.73;;;22.60;95.90;;;;;;5047070;28;20106;-54
2022/08/02 06:42:55;;;;;;;55.85;21.73;;;22.80;95.40;;;;;;5033912;28;20029;-54
2022/08/02 06:45:24;;;;;;;44.03;19.90;;;23.10;94.80;;;;;;5049390;28;20629;-54
2022/08/02 06:47:49;;;;;;;40.50;20.38;;;23.30;94.30;;;;;;5036770;28;20095;-54
2022/08/02 06:50:16;;;;;;;39.15;19.83;;;23.50;92.70;;;;;;5043547;28;20032;-54
2022/08/02 06:52:41;;;;;;;50.45;20.13;;;23.70;91.60;;;;;;5040011;28;20167;-55
2022/08/02 06:55:08;;;;;;;45.47;18.30;;;23.80;91.10;;;;;;5046675;28;20036;-54
2022/08/02 06:57:38;;;;;;;55.90;17.90;;;24.10;90.10;;;;;;5053066;28;20025;-55
2022/08/02 07:00:07;;;;;;;41.25;14.95;;;24.30;89.50;;;;;;5051029;28;20443;-55
2022/08/02 07:02:35;;;;;;;42.40;16.13;;;24.50;83.20;;;;;;5055976;28;20021;-55
2022/08/02 07:05:03;;;;;;;45.67;14.85;;;24.80;82.90;;;;;;5045264;28;20525;-55
2022/08/02 07:07:29;;;;;;;49.50;16.88;;;25.10;79.80;;;;;;5057240;28;20094;-55
2022/08/02 07:09:55;;;;;;;31.80;13.75;;;25.20;76.90;;;;;;5057422;28;20041;-55
2022/08/02 07:12:21;;;;;;;37.22;14.73;;;25.40;76.00;;;;;;5051101;28;20033;-55
2022/08/02 07:14:47;;;;;;;38.65;14.60;;;25.70;76.80;;;;;;5050851;28;20037;-55
2022/08/02 07:17:13;;;;;;;30.85;14.00;;;26.00;74.60;;;;;;5057365;28;20025;-55
2022/08/02 07:19:38;;;;;;;32.95;14.27;;;26.20;72.30;;;;;;5057686;28;20032;-55
2022/08/02 07:22:04;;;;;;;35.25;16.55;;;26.50;72.10;;;;;;5057529;28;20055;-55
2022/08/02 07:24:30;;;;;;;34.50;15.45;;;26.80;69.70;;;;;;5054273;28;20025;-55
2022/08/02 07:26:58;;;;;;;33.45;14.85;;;27.20;69.60;;;;;;5053780;28;20150;-55
2022/08/02 07:29:24;;;;;;;39.95;15.50;;;27.50;67.90;;;;;;5053676;28;20476;-55
2022/08/02 07:31:50;;;;;;;32.42;16.73;;;27.60;65.00;;;;;;5048201;28;20103;-55
2022/08/02 07:34:16;;;;;;;34.65;14.50;;;27.40;64.60;;;;;;5054530;28;20033;-55
2022/08/02 07:36:42;;;;;;;33.70;14.38;;;27.80;63.90;;;;;;5056935;28;20092;-55
2022/08/02 07:39:08;;;;;;;30.58;13.52;;;28.10;61.60;;;;;;5057098;28;20056;-55
2022/08/02 07:41:34;;;;;;;35.83;13.70;;;28.10;61.90;;;;;;5056424;28;20478;-55
2022/08/02 07:44:00;;;;;;;37.63;14.40;;;28.40;61.80;;;;;;5055424;28;20087;-55
2022/08/02 07:46:25;;;;;;;29.73;13.57;;;28.80;60.60;;;;;;5054138;28;20033;-55
2022/08/02 07:48:53;;;;;;;26.63;12.90;;;28.50;58.60;;;;;;5056604;28;20374;-55
2022/08/02 07:51:20;;;;;;;26.20;12.73;;;28.70;58.50;;;;;;5048741;28;20108;-55
2022/08/02 07:53:46;;;;;;;36.05;14.30;;;29.00;59.70;;;;;;5039359;28;20033;-55
2022/08/02 07:56:12;;;;;;;27.23;12.25;;;29.40;57.60;;;;;;5053521;28;20375;-55
2022/08/02 07:58:40;;;;;;;22.45;13.23;;;29.70;55.70;;;;;;5053262;28;20116;-55
2022/08/02 08:01:09;;;;;;;33.03;14.93;;;29.70;54.90;;;;;;5038760;28;20053;-55
2022/08/02 08:03:35;;;;;;;26.73;14.52;;;29.90;55.30;;;;;;5051563;28;20036;-57
2022/08/02 08:06:01;;;;;;;31.15;16.45;;;30.20;54.70;;;;;;5055213;28;20499;-56
2022/08/02 08:08:28;;;;;;;36.75;18.05;;;30.60;53.40;;;;;;5051608;28;20124;-56
2022/08/02 08:10:54;;;;;;;31.65;14.85;;;30.40;53.10;;;;;;5053417;28;20098;-56
2022/08/02 08:13:20;;;;;;;39.35;14.25;;;30.60;52.70;;;;;;5056014;28;20060;-55
2022/08/02 08:15:49;;;;;;;31.92;13.35;;;30.50;53.00;;;;;;5047576;28;20541;-56
2022/08/02 08:18:16;;;;;;;25.38;11.68;;;31.00;53.00;;;;;;5052869;28;20496;-56
2022/08/02 08:20:42;;;;;;;28.73;10.25;;;31.40;52.60;;;;;;5054603;28;20100;-56
2022/08/02 08:23:08;;;;;;;15.75;8.38;;;31.30;50.70;;;;;;5055185;28;20021;-56
2022/08/02 08:25:34;;;;;;;18.23;8.20;;;31.40;51.40;;;;;;5052381;28;20044;-56
2022/08/02 08:28:00;;;;;;;16.33;6.55;;;31.90;49.70;;;;;;5055101;28;20112;-56
2022/08/02 08:30:26;;;;;;;11.07;5.90;;;32.10;49.60;;;;;;5049699;28;20478;-56
2022/08/02 08:32:52;;;;;;;12.90;6.60;;;32.30;49.60;;;;;;5053087;28;20534;-56
2022/08/02 08:35:18;;;;;;;8.05;5.53;;;32.60;47.20;;;;;;5048414;28;20029;-56
2022/08/02 08:37:44;;;;;;;13.10;5.57;;;32.30;48.20;;;;;;5052873;28;20438;-56
2022/08/02 08:40:11;;;;;;;13.88;4.80;;;32.30;47.00;;;;;;5019586;28;20047;-56
2022/08/02 08:42:38;;;;;;;7.55;4.45;;;32.60;46.20;;;;;;5041149;28;20047;-56
2022/08/02 08:45:05;;;;;;;11.70;5.05;;;31.60;48.20;;;;;;5050451;28;20041;-56
2022/08/02 08:47:34;;;;;;;7.95;4.60;;;31.90;47.60;;;;;;5039044;28;20437;-56
2022/08/02 08:50:07;;;;;;;9.15;4.72;;;32.60;47.40;;;;;;5044183;28;20129;-56
2022/08/02 08:53:01;;;;;;;9.82;4.38;;;33.00;45.30;;;;;;5049958;28;20374;-56
2022/08/02 08:55:28;;;;;;;7.05;3.67;;;33.10;44.20;;;;;;5054630;28;20055;-56
2022/08/02 08:57:54;;;;;;;7.30;3.63;;;33.50;45.50;;;;;;5055045;28;20029;-56
2022/08/02 09:00:20;;;;;;;8.75;4.05;;;33.50;42.90;;;;;;5053513;28;20017;-56
2022/08/02 09:02:49;;;;;;;28.13;6.82;;;33.50;42.70;;;;;;5050180;28;20504;-56
2022/08/02 09:05:16;;;;;;;17.13;4.40;;;32.60;43.80;;;;;;5053937;28;20045;-56
2022/08/02 09:07:46;;;;;;;12.95;4.35;;;32.30;42.60;;;;;;5054179;28;20111;-56
2022/08/02 09:10:45;;;;;;;3.40;2.67;;;31.80;43.50;;;;;;5054322;28;20044;-56
2022/08/02 09:13:15;;;;;;;16.58;4.13;;;32.50;43.40;;;;;;4991793;28;20092;-56
2022/08/02 09:15:42;;;;;;;14.68;4.20;;;32.80;42.70;;;;;;5035338;28;20034;-56
2022/08/02 09:18:09;;;;;;;10.60;3.50;;;32.80;42.00;;;;;;5046657;28;20021;-56
2022/08/02 09:20:51;;;;;;;6.97;2.50;;;33.30;41.60;;;;;;5054109;28;20051;-56
2022/08/02 09:23:17;;;;;;;4.70;2.88;;;33.70;41.20;;;;;;5054514;28;20079;-56
2022/08/02 09:25:55;;;;;;;8.32;3.05;;;33.80;41.60;;;;;;5045497;28;20399;-56
2022/08/02 09:28:26;;;;;;;8.15;3.00;;;33.50;40.50;;;;;;5051418;28;20036;-56
2022/08/02 09:30:55;;;;;;;15.52;4.95;;;33.80;41.30;;;;;;5049626;28;20402;-56
2022/08/02 09:33:27;;;;;;;5.20;2.75;;;33.60;40.10;;;;;;5053610;28;20210;-56
2022/08/02 09:36:03;;;;;;;10.98;3.70;;;33.60;39.60;;;;;;5027796;28;20040;-56
2022/08/02 09:38:29;;;;;;;5.28;2.42;;;33.40;39.60;;;;;;5048919;28;20025;-56
2022/08/02 09:40:55;;;;;;;9.25;2.60;;;32.80;39.40;;;;;;5051322;28;20108;-56
2022/08/02 09:43:33;;;;;;;9.07;2.80;;;32.60;41.90;;;;;;5051535;28;20021;-56
2022/08/02 09:45:59;;;;;;;7.30;2.90;;;32.60;40.50;;;;;;5049484;28;20079;-55
2022/08/02 09:48:24;;;;;;;7.63;2.75;;;32.30;42.00;;;;;;5050696;28;20029;-56
2022/08/02 09:50:58;;;;;;;7.03;3.08;;;32.10;42.90;;;;;;5046742;28;20036;-56
2022/08/02 09:53:24;;;;;;;12.77;3.60;;;32.20;42.70;;;;;;5050801;28;20033;-56
2022/08/02 09:55:56;;;;;;;9.27;3.35;;;32.30;41.50;;;;;;5053550;28;20382;-55
2022/08/02 09:58:22;;;;;;;17.20;4.00;;;32.50;41.10;;;;;;5054255;28;20071;-55
2022/08/02 10:00:59;;;;;;;19.30;5.70;;;32.20;40.90;;;;;;5054205;28;20021;-56
2022/08/02 10:03:25;;;;;;;16.77;3.88;;;31.60;41.50;;;;;;5047741;28;20075;-55
2022/08/02 10:05:53;;;;;;;8.30;2.78;;;31.60;42.60;;;;;;5052947;28;20037;-56
2022/08/02 10:08:22;;;;;;;2.80;1.83;;;31.40;41.70;;;;;;5053218;28;20040;-55
2022/08/02 10:10:59;;;;;;;5.18;2.40;;;31.50;40.80;;;;;;5050919;28;20029;-55
2022/08/02 10:13:31;;;;;;;5.03;3.10;;;31.10;41.20;;;;;;5049318;28;20437;-55
2022/08/02 10:15:57;;;;;;;12.07;3.25;;;31.40;42.00;;;;;;5041318;28;20501;-56
2022/08/02 10:18:23;;;;;;;3.22;1.73;;;32.10;41.90;;;;;;5053849;28;20498;-56
2022/08/02 10:20:53;;;;;;;3.92;2.15;;;33.20;39.90;;;;;;5049077;28;20017;-56
2022/08/02 10:23:20;;;;;;;8.32;2.63;;;33.90;38.20;;;;;;5027477;28;20032;-56
2022/08/02 10:25:54;;;;;;;2.03;1.60;;;34.60;37.20;;;;;;5048296;28;20045;-56
2022/08/02 10:28:29;;;;;;;13.15;2.67;;;34.70;35.30;;;;;;5050083;28;20112;-56
2022/08/02 10:30:56;;;;;;;7.18;2.70;;;34.20;36.40;;;;;;5053798;28;20033;-56
2022/08/02 10:33:25;;;;;;;6.55;2.67;;;34.30;36.90;;;;;;5052679;28;20025;-56
2022/08/02 10:35:56;;;;;;;14.07;4.25;;;34.20;35.60;;;;;;5054092;28;20025;-56
2022/08/02 10:38:23;;;;;;;3.10;1.60;;;33.50;36.50;;;;;;5053001;28;20036;-56
2022/08/02 10:40:54;;;;;;;7.03;2.80;;;33.40;36.70;;;;;;5044648;28;20021;-56
2022/08/02 10:43:46;;;;;;;9.15;3.40;;;33.20;38.10;;;;;;5050158;28;20034;-56
2022/08/02 10:46:33;;;;;;;1.85;1.40;;;32.80;36.60;;;;;;5031455;28;20041;-56
2022/08/02 10:49:22;;;;;;;5.20;1.88;;;32.60;37.20;;;;;;5047911;28;20033;-56
2022/08/02 10:51:54;;;;;;;21.92;3.13;;;33.30;35.40;;;;;;5031802;28;20041;-56
2022/08/02 10:54:30;;;;;;;5.00;2.40;;;32.80;37.30;;;;;;5050801;28;20028;-56
2022/08/02 10:56:58;;;;;;;3.92;1.95;;;33.50;37.20;;;;;;5053505;28;20029;-56
2022/08/02 10:59:34;;;;;;;2.20;1.90;;;34.10;36.40;;;;;;5051256;28;20032;-56
2022/08/02 11:02:01;;;;;;;9.80;2.65;;;34.60;34.30;;;;;;5043633;28;20024;-56
2022/08/02 11:04:52;;;;;;;3.97;2.80;;;35.30;34.00;;;;;;5053279;28;20508;-56
2022/08/02 11:07:32;;;;;;;4.60;1.98;;;35.00;33.40;;;;;;5050539;28;20166;-56
2022/08/02 11:10:27;;;;;;;13.20;3.70;;;35.00;33.20;;;;;;5047668;28;20122;-56
2022/08/02 11:13:13;;;;;;;5.70;2.10;;;35.10;33.60;;;;;;5049169;28;20029;-56
2022/08/02 11:15:55;;;;;;;2.00;1.33;;;34.10;33.80;;;;;;5052030;28;20080;-56
2022/08/02 11:18:23;;;;;;;4.28;2.03;;;34.20;34.00;;;;;;5043985;28;20025;-56
2022/08/02 11:21:20;;;;;;;7.80;2.08;;;32.90;34.60;;;;;;5042599;28;20025;-56
2022/08/02 11:23:46;;;;;;;4.82;2.20;;;33.70;36.00;;;;;;5042932;28;20467;-56
2022/08/02 11:26:31;;;;;;;6.93;3.10;;;34.00;36.30;;;;;;5052542;28;20095;-56
2022/08/02 11:29:02;;;;;;;16.83;3.45;;;34.20;35.00;;;;;;5042249;28;20033;-56
2022/08/02 11:31:29;;;;;;;3.40;2.10;;;34.10;35.40;;;;;;5044208;28;20025;-56
2022/08/02 11:33:54;;;;;;;4.47;1.80;;;33.70;35.80;;;;;;5042146;28;20032;-56
2022/08/02 11:36:21;;;;;;;6.90;2.58;;;33.10;37.00;;;;;;5042286;28;20026;-56
2022/08/02 11:38:47;;;;;;;11.55;4.13;;;33.30;36.80;;;;;;5048038;28;20017;-56
2022/08/02 11:41:20;;;;;;;7.82;2.20;;;33.10;37.70;;;;;;5032191;28;20033;-56
2022/08/02 11:43:52;;;;;;;5.40;1.77;;;33.50;36.90;;;;;;5041024;28;20120;-56
2022/08/02 11:46:22;;;;;;;2.50;1.30;;;33.80;36.20;;;;;;5041053;28;20032;-56
2022/08/02 11:48:48;;;;;;;13.80;2.78;;;34.50;34.70;;;;;;5042599;28;20442;-56
2022/08/02 11:51:17;;;;;;;8.52;2.90;;;35.30;33.80;;;;;;5042189;28;20036;-55
2022/08/02 11:53:51;;;;;;;4.28;2.20;;;35.60;33.00;;;;;;5048763;28;20107;-56
2022/08/02 11:56:28;;;;;;;11.80;3.40;;;35.50;31.70;;;;;;5045031;28;20083;-56
2022/08/02 11:59:09;;;;;;;12.48;3.55;;;35.10;32.60;;;;;;5056057;28;20414;-56
2022/08/02 12:01:37;;;;;;;9.20;2.90;;;34.90;33.00;;;;;;5049379;28;20656;-56
2022/08/02 12:04:04;;;;;;;40.92;7.20;;;34.50;34.10;;;;;;5045749;28;20037;-56
2022/08/02 12:06:31;;;;;;;13.20;2.85;;;34.30;34.30;;;;;;5037354;28;20053;-56
2022/08/02 12:09:05;;;;;;;4.68;2.25;;;34.80;34.10;;;;;;5049766;28;20037;-56
2022/08/02 12:11:33;;;;;;;2.70;1.73;;;35.10;31.70;;;;;;5050875;28;20025;-56
2022/08/02 12:14:00;;;;;;;4.68;2.40;;;33.80;33.30;;;;;;5050317;28;20078;-56
2022/08/02 12:19:26;;;;;;;9.00;2.03;;;35.40;32.50;;;;;;5048311;28;20379;-56
2022/08/02 12:22:11;;;;;;;8.00;2.25;;;35.00;31.90;;;;;;5045258;28;20036;-56
2022/08/02 12:24:38;;;;;;;3.25;1.58;;;35.80;31.20;;;;;;5046344;28;20798;-56
2022/08/02 12:27:07;;;;;;;9.77;2.83;;;36.50;30.50;;;;;;5042133;28;20037;-56
2022/08/02 12:29:41;;;;;;;9.20;3.07;;;36.40;30.80;;;;;;5042454;28;20057;-56
2022/08/02 12:32:07;;;;;;;2.03;1.80;;;36.50;31.10;;;;;;5035871;28;20410;-56
2022/08/02 12:34:34;;;;;;;10.35;3.25;;;36.30;31.30;;;;;;5045326;28;20037;-56
2022/08/02 12:37:06;;;;;;;14.20;3.22;;;36.20;31.00;;;;;;5039678;28;20017;-56
2022/08/02 12:39:36;;;;;;;8.52;2.83;;;36.00;31.40;;;;;;5050713;28;20025;-56
2022/08/02 12:42:04;;;;;;;10.02;2.35;;;34.80;33.00;;;;;;5050348;28;20104;-56
2022/08/02 12:44:30;;;;;;;3.45;1.63;;;34.40;33.30;;;;;;5050565;28;20025;-56
2022/08/02 12:47:04;;;;;;;4.68;1.77;;;34.10;35.20;;;;;;5043088;28;20408;-56
2022/08/02 12:49:30;;;;;;;6.18;2.60;;;33.80;34.40;;;;;;5050149;28;20657;-56
2022/08/02 12:51:57;;;;;;;6.90;2.58;;;33.40;36.00;;;;;;5045979;28;20025;-56
2022/08/02 12:54:26;;;;;;;12.27;2.72;;;33.50;36.80;;;;;;5045385;28;20026;-56
2022/08/02 12:56:52;;;;;;;2.87;1.77;;;34.00;35.80;;;;;;5055070;28;20025;-56